Time;durP1;ratioP1;P1;durP2;ratioP2;P2;SDS_P1;SDS_P2;PMS_P1;PMS_P2;Temp;Humidity;BMP_temperature;BMP_pressure;BME280_temperature;BME280_humidity;BME280_pressure;Samples;Min_cycle;Max_cycle;Signal;HPM_P1;HPM_P2
2021/12/11 00:00:33;;;;;;;10.63;9.53;;;;;;;-0.51;100.00;96565.97;5001679;28;20200;-71
2021/12/11 00:03:05;;;;;;;11.03;9.93;;;;;;;-0.53;100.00;96567.06;4967308;28;20726;-70
2021/12/11 00:05:36;;;;;;;11.33;10.13;;;;;;;-0.46;100.00;96568.19;4974506;28;20577;-71
2021/12/11 00:08:05;;;;;;;9.83;8.93;;;;;;;-0.45;100.00;96580.25;4991123;28;20204;-69
2021/12/11 00:10:43;;;;;;;10.50;9.50;;;;;;;-0.46;100.00;96583.81;4982907;28;20378;-71
2021/12/11 00:13:22;;;;;;;9.07;8.20;;;;;;;-0.40;100.00;96585.91;4998352;28;20228;-69
2021/12/11 00:15:50;;;;;;;9.10;8.17;;;;;;;-0.48;100.00;96594.34;4984822;28;20216;-71
2021/12/11 00:18:21;;;;;;;9.07;8.07;;;;;;;-0.45;100.00;96599.28;4968980;28;20264;-69
2021/12/11 00:20:54;;;;;;;7.47;6.77;;;;;;;-0.45;100.00;96601.06;4999410;28;20703;-70
2021/12/11 00:23:27;;;;;;;8.27;6.83;;;;;;;-0.48;100.00;96598.72;4973917;28;20769;-71
2021/12/11 00:25:57;;;;;;;8.50;7.70;;;;;;;-0.50;100.00;96603.25;5006577;28;20308;-71
2021/12/11 00:28:25;;;;;;;7.27;6.67;;;;;;;-0.49;100.00;96597.91;4989449;28;20208;-71
2021/12/11 00:30:54;;;;;;;7.13;6.43;;;;;;;-0.52;100.00;96599.94;5003474;28;20219;-72
2021/12/11 00:33:25;;;;;;;6.77;6.17;;;;;;;-0.52;100.00;96613.78;4968962;28;21907;-71
2021/12/11 00:35:55;;;;;;;6.70;6.10;;;;;;;-0.46;100.00;96617.66;5001293;28;20208;-72
2021/12/11 00:38:32;;;;;;;7.40;6.70;;;;;;;-0.48;100.00;96619.56;5000858;28;20515;-70
2021/12/11 00:41:02;;;;;;;6.97;6.27;;;;;;;-0.48;100.00;96632.56;4987759;28;20223;-72
2021/12/11 00:43:34;;;;;;;7.17;6.57;;;;;;;-0.41;100.00;96636.31;5003137;28;20224;-72
2021/12/11 00:46:05;;;;;;;5.97;5.27;;;;;;;-0.42;100.00;96636.41;4984227;28;20229;-70
2021/12/11 00:48:33;;;;;;;6.90;6.27;;;;;;;-0.44;100.00;96639.97;4998895;28;20417;-71
2021/12/11 00:51:06;;;;;;;6.70;5.47;;;;;;;-0.46;100.00;96654.09;4947729;28;20224;-69
2021/12/11 00:53:37;;;;;;;6.43;5.77;;;;;;;-0.45;100.00;96655.75;5004143;28;20716;-71
2021/12/11 00:56:10;;;;;;;6.57;5.97;;;;;;;-0.47;100.00;96662.84;4989675;28;20219;-69
2021/12/11 00:58:40;;;;;;;6.40;5.80;;;;;;;-0.46;100.00;96667.91;4998432;28;20395;-72
2021/12/11 01:01:12;;;;;;;7.27;6.57;;;;;;;-0.41;100.00;96675.34;4999865;28;20593;-69
2021/12/11 01:03:45;;;;;;;6.63;5.90;;;;;;;-0.41;100.00;96669.31;4984198;28;20255;-72
2021/12/11 01:06:15;;;;;;;7.50;6.80;;;;;;;-0.45;100.00;96671.34;4955990;28;20233;-70
2021/12/11 01:08:47;;;;;;;7.13;6.43;;;;;;;-0.44;100.00;96680.81;4990184;28;20217;-71
2021/12/11 01:11:20;;;;;;;5.90;5.40;;;;;;;-0.36;100.00;96688.81;4985911;28;20546;-69
2021/12/11 01:13:52;;;;;;;7.30;6.70;;;;;;;-0.41;100.00;96688.38;5004519;28;20521;-72
2021/12/11 01:16:21;;;;;;;5.77;5.20;;;;;;;-0.47;100.00;96691.47;4981767;28;20389;-70
2021/12/11 01:18:51;;;;;;;6.30;5.70;;;;;;;-0.48;100.00;96690.63;4995487;28;20320;-72
2021/12/11 01:21:33;;;;;;;6.67;6.10;;;;;;;-0.44;100.00;96705.06;4939051;28;20283;-70
2021/12/11 01:24:14;;;;;;;6.57;5.97;;;;;;;-0.47;100.00;96707.09;5004479;28;20243;-69
2021/12/11 01:26:49;;;;;;;6.57;5.97;;;;;;;-0.48;100.00;96703.66;4984204;28;20221;-71
2021/12/11 01:29:18;;;;;;;6.30;5.70;;;;;;;-0.46;100.00;96714.75;4995630;28;20259;-69
2021/12/11 01:31:47;;;;;;;6.07;5.57;;;;;;;-0.47;100.00;96717.50;5001296;28;20324;-71
2021/12/11 01:34:16;;;;;;;5.60;4.63;;;;;;;-0.47;100.00;96718.31;4986830;28;20681;-69
2021/12/11 01:36:44;;;;;;;5.67;5.20;;;;;;;-0.47;100.00;96722.72;4962721;28;20220;-71
2021/12/11 01:39:16;;;;;;;5.70;5.07;;;;;;;-0.42;100.00;96730.97;4965969;28;20210;-69
2021/12/11 01:41:47;;;;;;;6.53;5.93;;;;;;;-0.45;100.00;96733.81;4979827;28;20296;-71
2021/12/11 01:44:18;;;;;;;6.00;5.50;;;;;;;-0.46;100.00;96745.19;4983075;28;20224;-70
2021/12/11 01:46:46;;;;;;;6.23;5.73;;;;;;;-0.48;100.00;96749.69;5004700;28;20600;-71
2021/12/11 01:49:18;;;;;;;5.77;5.27;;;;;;;-0.46;100.00;96753.00;5002980;28;20216;-69
2021/12/11 01:51:51;;;;;;;6.70;5.27;;;;;;;-0.48;100.00;96744.50;4969039;28;20212;-71
2021/12/11 01:54:23;;;;;;;6.20;5.70;;;;;;;-0.46;100.00;96760.81;4993942;28;20221;-69
2021/12/11 01:56:59;;;;;;;5.30;4.87;;;;;;;-0.47;100.00;96762.56;4976010;28;20530;-71
2021/12/11 01:59:30;;;;;;;5.53;5.03;;;;;;;-0.42;100.00;96771.78;4994390;28;20323;-72
2021/12/11 02:02:02;;;;;;;6.20;5.60;;;;;;;-0.42;100.00;96774.38;5004716;28;20212;-70
2021/12/11 02:04:33;;;;;;;7.00;6.03;;;;;;;-0.43;100.00;96778.78;4984627;28;20233;-72
2021/12/11 02:07:06;;;;;;;5.93;5.43;;;;;;;-0.47;100.00;96782.56;4959815;28;20228;-69
2021/12/11 02:09:36;;;;;;;5.20;4.80;;;;;;;-0.40;100.00;96790.69;4979321;28;20845;-69
2021/12/11 02:12:10;;;;;;;5.33;4.93;;;;;;;-0.42;100.00;96793.44;4995227;28;20211;-70
2021/12/11 02:14:46;;;;;;;6.40;5.80;;;;;;;-0.39;100.00;96793.19;4975874;28;20374;-71
2021/12/11 02:17:17;;;;;;;6.47;5.80;;;;;;;-0.40;100.00;96796.75;4997925;28;20208;-69
2021/12/11 02:19:47;;;;;;;6.40;5.80;;;;;;;-0.40;100.00;96804.56;4996730;28;20277;-71
2021/12/11 02:22:18;;;;;;;6.03;5.50;;;;;;;-0.39;100.00;96807.97;4951239;28;20485;-70
2021/12/11 02:24:49;;;;;;;6.50;5.93;;;;;;;-0.38;100.00;96813.06;5006132;28;20232;-70
2021/12/11 02:27:21;;;;;;;6.37;5.77;;;;;;;-0.39;100.00;96823.59;4966729;28;20224;-69
2021/12/11 02:29:53;;;;;;;5.53;5.03;;;;;;;-0.39;100.00;96829.63;5002915;28;20209;-68
2021/12/11 02:32:29;;;;;;;6.67;6.07;;;;;;;-0.31;100.00;96829.84;4986429;28;20220;-69
2021/12/11 02:35:01;;;;;;;7.83;5.70;;;;;;;-0.35;100.00;96836.25;5006084;28;20234;-72
2021/12/11 02:37:37;;;;;;;6.37;5.77;;;;;;;-0.37;100.00;96837.34;4968359;28;20953;-71
2021/12/11 02:40:16;;;;;;;6.80;5.97;;;;;;;-0.36;100.00;96838.97;4988917;28;20453;-69
2021/12/11 02:42:53;;;;;;;6.23;5.73;;;;;;;-0.42;100.00;96845.50;5003265;28;20285;-72
2021/12/11 02:45:25;;;;;;;6.23;5.63;;;;;;;-0.27;100.00;96845.22;4970416;28;20415;-71
2021/12/11 02:47:58;;;;;;;6.37;5.57;;;;;;;-0.31;100.00;96855.06;5002710;28;20226;-71
2021/12/11 02:50:33;;;;;;;7.77;6.20;;;;;;;-0.39;100.00;96865.25;4985029;28;20393;-71
2021/12/11 02:53:07;;;;;;;5.43;4.93;;;;;;;-0.42;100.00;96866.31;4964211;28;20235;-70
2021/12/11 02:55:38;;;;;;;6.17;5.67;;;;;;;-0.34;100.00;96869.13;4999256;28;20608;-73
2021/12/11 02:58:09;;;;;;;5.43;4.87;;;;;;;-0.35;100.00;96866.66;4983615;28;20225;-69
2021/12/11 03:00:41;;;;;;;6.97;5.73;;;;;;;-0.37;100.00;96877.19;4990697;28;20215;-71
2021/12/11 03:03:12;;;;;;;5.40;4.90;;;;;;;-0.41;100.00;96878.41;4987937;28;20229;-69
2021/12/11 03:05:47;;;;;;;5.70;5.20;;;;;;;-0.41;100.00;96878.41;5002363;28;20218;-71
2021/12/11 03:08:19;;;;;;;5.90;5.40;;;;;;;-0.42;100.00;96891.50;4955196;28;20715;-69
2021/12/11 03:10:50;;;;;;;5.83;5.30;;;;;;;-0.40;100.00;96889.63;4998026;28;20461;-71
2021/12/11 03:13:18;;;;;;;5.07;4.63;;;;;;;-0.32;100.00;96898.47;4999896;28;20229;-69
2021/12/11 03:15:46;;;;;;;6.00;5.40;;;;;;;-0.37;100.00;96902.41;4995224;28;20219;-71
2021/12/11 03:18:15;;;;;;;5.57;5.07;;;;;;;-0.38;100.00;96904.19;5007174;28;20205;-69
2021/12/11 03:20:45;;;;;;;5.47;4.97;;;;;;;-0.46;100.00;96899.56;4987771;28;20203;-71
2021/12/11 03:23:13;;;;;;;4.77;4.40;;;;;;;-0.41;100.00;96909.63;4965440;28;20248;-69
2021/12/11 03:25:44;;;;;;;5.73;5.23;;;;;;;-0.37;100.00;96918.03;5008788;28;20201;-71
2021/12/11 03:28:14;;;;;;;5.93;5.40;;;;;;;-0.32;100.00;96928.91;4991319;28;20240;-69
2021/12/11 03:30:44;;;;;;;6.03;5.47;;;;;;;-0.36;100.00;96924.91;4989041;28;20221;-72
2021/12/11 03:33:16;;;;;;;5.93;5.37;;;;;;;-0.35;100.00;96935.16;4985651;28;20239;-69
2021/12/11 03:35:46;;;;;;;5.97;5.37;;;;;;;-0.36;100.00;96940.53;5003682;28;20227;-72
2021/12/11 03:38:16;;;;;;;6.10;5.60;;;;;;;-0.35;100.00;96936.97;4958402;28;20230;-69
2021/12/11 03:40:46;;;;;;;6.60;5.90;;;;;;;-0.27;100.00;96946.75;5000225;28;20221;-70
2021/12/11 03:43:17;;;;;;;5.77;5.27;;;;;;;-0.38;100.00;96945.00;4999357;28;20224;-69
2021/12/11 03:45:47;;;;;;;5.83;5.40;;;;;;;-0.28;100.00;96953.75;4979405;28;20204;-71
2021/12/11 03:48:24;;;;;;;5.53;5.03;;;;;;;-0.30;100.00;96956.47;4997486;28;20322;-70
2021/12/11 03:50:53;;;;;;;6.57;5.80;;;;;;;-0.32;100.00;96965.34;4985324;28;20224;-71
2021/12/11 03:53:22;;;;;;;9.37;6.83;;;;;;;-0.37;100.00;96965.72;4965455;28;20336;-72
2021/12/11 03:55:55;;;;;;;6.87;6.17;;;;;;;-0.36;100.00;96972.56;4994453;28;20207;-72
2021/12/11 03:58:24;;;;;;;6.77;6.17;;;;;;;-0.41;100.00;96971.25;4988693;28;20212;-70
2021/12/11 04:00:56;;;;;;;7.47;6.87;;;;;;;-0.36;100.00;96980.38;5004655;28;20217;-71
2021/12/11 04:03:28;;;;;;;7.63;6.90;;;;;;;-0.31;100.00;96985.25;4973605;28;20228;-69
2021/12/11 04:05:58;;;;;;;8.00;7.20;;;;;;;-0.34;100.00;96993.28;5000190;28;20212;-68
2021/12/11 04:08:29;;;;;;;8.83;7.93;;;;;;;-0.34;100.00;97004.53;4947878;28;20417;-71
2021/12/11 04:10:58;;;;;;;8.40;7.60;;;;;;;-0.37;100.00;97007.38;5001240;28;20213;-72
2021/12/11 04:13:26;;;;;;;8.77;7.97;;;;;;;-0.35;100.00;97010.69;5003567;28;20414;-72
2021/12/11 04:15:55;;;;;;;7.93;7.17;;;;;;;-0.44;100.00;97017.41;4987578;28;20222;-71
2021/12/11 04:18:24;;;;;;;8.63;7.63;;;;;;;-0.41;100.00;97021.56;4993517;28;20415;-71
2021/12/11 04:20:52;;;;;;;9.70;8.27;;;;;;;-0.43;100.00;97026.06;4986368;28;20232;-71
2021/12/11 04:23:21;;;;;;;9.20;7.90;;;;;;;-0.46;100.00;97028.91;4959850;28;20229;-68
2021/12/11 04:25:52;;;;;;;8.90;8.00;;;;;;;-0.41;100.00;97034.59;5011257;28;20538;-72
2021/12/11 04:28:22;;;;;;;8.53;7.57;;;;;;;-0.37;100.00;97041.22;4979994;28;20545;-69
2021/12/11 04:31:02;;;;;;;8.57;7.67;;;;;;;-0.38;100.00;97042.16;5002074;28;20204;-71
2021/12/11 04:33:30;;;;;;;9.10;8.17;;;;;;;-0.36;100.00;97042.88;4991263;28;20239;-71
2021/12/11 04:35:58;;;;;;;9.23;8.20;;;;;;;-0.44;100.00;97046.06;5000746;28;20200;-71
2021/12/11 04:38:26;;;;;;;9.67;8.67;;;;;;;-0.46;100.00;97053.16;4962191;28;21537;-71
2021/12/11 04:40:57;;;;;;;9.00;8.10;;;;;;;-0.46;100.00;97055.75;5010493;28;20210;-71
2021/12/11 04:43:27;;;;;;;9.83;8.83;;;;;;;-0.47;100.00;97063.69;4979326;28;20225;-71
2021/12/11 04:45:59;;;;;;;10.13;9.13;;;;;;;-0.41;100.00;97072.78;5005387;28;20204;-71
2021/12/11 04:48:37;;;;;;;10.90;9.37;;;;;;;-0.45;100.00;97074.81;4988639;28;20744;-71
2021/12/11 04:51:14;;;;;;;10.30;8.70;;;;;;;-0.48;100.00;97085.47;4997792;28;20201;-68
2021/12/11 04:53:58;;;;;;;10.10;9.07;;;;;;;-0.45;100.00;97082.63;4961733;28;20699;-72
2021/12/11 04:59:39;;;;;;;10.03;9.00;;;;;;;-0.44;100.00;97097.31;4969891;28;20212;-70
2021/12/11 05:02:28;;;;;;;9.77;8.77;;;;;;;-0.46;100.00;97099.19;4998832;28;20220;-69
2021/12/11 05:05:08;;;;;;;13.60;10.40;;;;;;;-0.43;100.00;97109.38;4985764;28;20256;-71
2021/12/11 05:07:43;;;;;;;9.37;8.37;;;;;;;-0.50;100.00;97108.19;4993387;28;20635;-72
2021/12/11 05:10:21;;;;;;;12.63;10.40;;;;;;;-0.41;100.00;97115.28;4979440;28;20204;-69
2021/12/11 05:12:56;;;;;;;11.00;8.47;;;;;;;-0.38;100.00;97116.81;4958536;28;21331;-69
2021/12/11 05:15:30;;;;;;;9.77;8.77;;;;;;;-0.46;100.00;97123.44;4994129;28;20215;-71
2021/12/11 05:17:59;;;;;;;10.53;9.40;;;;;;;-0.40;100.00;97126.50;4972761;28;20440;-72
2021/12/11 05:20:32;;;;;;;10.37;9.30;;;;;;;-0.48;100.00;97134.94;4981220;28;20246;-70
2021/12/11 05:23:00;;;;;;;11.53;10.20;;;;;;;-0.49;100.00;97139.28;4989653;28;20268;-71
2021/12/11 05:25:29;;;;;;;12.13;10.00;;;;;;;-0.46;100.00;97141.66;4977418;28;20231;-69
2021/12/11 05:27:58;;;;;;;14.13;10.90;;;;;;;-0.51;100.00;97151.59;4966477;28;20447;-70
2021/12/11 05:30:34;;;;;;;12.83;10.37;;;;;;;-0.46;100.00;97159.06;4979736;28;20685;-71
2021/12/11 05:33:03;;;;;;;11.53;9.70;;;;;;;-0.36;100.00;97154.81;4992982;28;20624;-71
2021/12/11 05:35:35;;;;;;;13.37;10.17;;;;;;;-0.40;100.00;97168.16;4963352;28;20213;-70
2021/12/11 05:38:06;;;;;;;10.77;9.00;;;;;;;-0.44;100.00;97170.19;4988047;28;20499;-71
2021/12/11 05:40:36;;;;;;;11.80;10.03;;;;;;;-0.44;100.00;97172.78;4991236;28;20239;-65
2021/12/11 05:43:05;;;;;;;12.07;9.60;;;;;;;-0.33;100.00;97185.00;4952825;28;20229;-72
2021/12/11 05:45:34;;;;;;;12.20;9.70;;;;;;;-0.29;100.00;97181.22;4987624;28;20288;-69
2021/12/11 05:48:03;;;;;;;11.90;9.73;;;;;;;-0.35;100.00;97173.88;4979317;28;20859;-71
2021/12/11 05:50:35;;;;;;;10.00;9.00;;;;;;;-0.49;100.00;97183.53;4968584;28;20217;-73
2021/12/11 05:53:04;;;;;;;11.60;10.37;;;;;;;-0.44;100.00;97185.81;4987313;28;20347;-75
2021/12/11 05:55:33;;;;;;;10.13;9.07;;;;;;;-0.47;100.00;97183.44;4979143;28;20308;-75
2021/12/11 05:58:09;;;;;;;11.17;9.83;;;;;;;-0.49;100.00;97196.56;4961609;28;20869;-76
2021/12/11 06:00:40;;;;;;;12.23;9.87;;;;;;;-0.51;100.00;97200.22;4976780;28;20235;-73
2021/12/11 06:03:09;;;;;;;12.47;9.43;;;;;;;-0.47;100.00;97206.88;4993047;28;21042;-75
2021/12/11 06:05:38;;;;;;;12.90;10.33;;;;;;;-0.47;100.00;97209.47;4963175;28;20951;-73
2021/12/11 06:08:06;;;;;;;11.97;9.57;;;;;;;-0.48;100.00;97224.25;4993267;28;20217;-76
2021/12/11 06:10:36;;;;;;;10.30;9.30;;;;;;;-0.47;100.00;97227.69;4993918;28;20744;-73
2021/12/11 06:13:04;;;;;;;11.80;10.10;;;;;;;-0.47;100.00;97227.69;4962734;28;20597;-76
2021/12/11 06:15:32;;;;;;;11.43;9.93;;;;;;;-0.42;100.00;97238.59;4995647;28;20452;-73
2021/12/11 06:18:03;;;;;;;13.87;10.43;;;;;;;-0.42;100.00;97235.13;4979801;28;20566;-78
2021/12/11 06:20:33;;;;;;;12.53;9.73;;;;;;;-0.49;100.00;97246.00;4994044;28;20339;-73
2021/12/11 06:23:05;;;;;;;13.63;10.57;;;;;;;-0.50;100.00;97253.94;4982163;28;20244;-75
2021/12/11 06:25:34;;;;;;;12.10;9.23;;;;;;;-0.53;100.00;97262.00;4980845;28;20225;-72
2021/12/11 06:28:03;;;;;;;13.50;10.20;;;;;;;-0.47;100.00;97258.94;4962936;28;20519;-76
2021/12/11 06:30:32;;;;;;;11.67;10.33;;;;;;;-0.47;100.00;97264.94;4978259;28;20332;-74
2021/12/11 06:33:03;;;;;;;16.47;12.87;;;;;;;-0.47;100.00;97275.38;4989844;28;20217;-76
2021/12/11 06:35:35;;;;;;;12.47;10.10;;;;;;;-0.46;100.00;97271.81;4977680;28;20607;-72
2021/12/11 06:38:05;;;;;;;18.27;13.63;;;;;;;-0.44;100.00;97280.34;4949845;28;20234;-76
2021/12/11 06:40:33;;;;;;;92.90;60.13;;;;;;;-0.51;100.00;97286.13;4971573;28;20530;-75
2021/12/11 06:43:03;;;;;;;30.23;27.13;;;;;;;-0.46;100.00;97286.63;4956773;28;20488;-75
2021/12/11 06:45:32;;;;;;;15.17;11.03;;;;;;;-0.53;100.00;97296.63;4920393;28;20682;-73
2021/12/11 06:48:00;;;;;;;14.20;11.17;;;;;;;-0.40;100.00;97311.34;4958027;28;20221;-75
2021/12/11 06:50:29;;;;;;;14.20;11.20;;;;;;;-0.42;100.00;97319.28;4971352;28;20233;-72
2021/12/11 06:52:59;;;;;;;13.87;10.20;;;;;;;-0.42;100.00;97327.09;4969792;28;20505;-73
2021/12/11 06:55:27;;;;;;;14.27;10.80;;;;;;;-0.47;100.00;97327.44;4958975;28;20464;-76
2021/12/11 06:57:55;;;;;;;12.70;10.97;;;;;;;-0.48;100.00;97335.38;4969834;28;20467;-76
2021/12/11 07:00:28;;;;;;;12.50;9.87;;;;;;;-0.35;100.00;97346.53;4923790;28;20216;-76
2021/12/11 07:02:57;;;;;;;14.53;11.40;;;;;;;-0.43;100.00;97354.09;4970826;28;20543;-75
2021/12/11 07:05:25;;;;;;;13.07;10.13;;;;;;;-0.43;100.00;97356.69;4963180;28;20213;-76
2021/12/11 07:07:55;;;;;;;14.90;10.93;;;;;;;-0.49;100.00;97362.34;4955975;28;20205;-73
2021/12/11 07:10:23;;;;;;;12.50;10.47;;;;;;;-0.42;100.00;97368.75;4963686;28;20494;-72
2021/12/11 07:12:52;;;;;;;12.93;10.97;;;;;;;-0.37;100.00;97369.25;4965472;28;20444;-73
2021/12/11 07:15:20;;;;;;;16.27;12.97;;;;;;;-0.38;100.00;97378.00;4928123;28;20217;-75
2021/12/11 07:17:48;;;;;;;16.43;12.10;;;;;;;-0.44;100.00;97389.69;4968538;28;20651;-73
2021/12/11 07:20:16;;;;;;;21.17;16.67;;;;;;;-0.43;100.00;97393.13;4957349;28;20201;-76
2021/12/11 07:22:45;;;;;;;12.53;10.67;;;;;;;-0.48;100.00;97397.84;4956479;28;20214;-72
2021/12/11 07:25:20;;;;;;;13.47;10.40;;;;;;;-0.43;100.00;97411.34;4955430;28;20297;-75
2021/12/11 07:27:49;;;;;;;48.83;28.40;;;;;;;-0.45;100.00;97414.06;4954710;28;20650;-73
2021/12/11 07:30:17;;;;;;;51.50;21.93;;;;;;;-0.47;100.00;97413.34;4968291;28;20552;-75
2021/12/11 07:32:45;;;;;;;79.03;32.90;;;;;;;-0.46;100.00;97425.41;4927827;28;21277;-73
2021/12/11 07:35:13;;;;;;;36.83;20.77;;;;;;;-0.45;100.00;97429.69;4968538;28;20571;-74
2021/12/11 07:37:47;;;;;;;45.43;23.50;;;;;;;-0.36;100.00;97440.41;4976560;28;20584;-73
2021/12/11 07:40:17;;;;;;;22.83;14.70;;;;;;;-0.42;100.00;97446.88;4956077;28;20202;-75
2021/12/11 07:42:45;;;;;;;25.83;18.37;;;;;;;-0.42;100.00;97449.47;4975269;28;20627;-74
2021/12/11 07:45:14;;;;;;;23.77;14.73;;;;;;;-0.36;100.00;97456.84;4956610;28;20221;-76
2021/12/11 07:47:42;;;;;;;24.97;16.20;;;;;;;-0.40;100.00;97465.81;4935119;28;20221;-73
2021/12/11 07:50:10;;;;;;;33.70;20.47;;;;;;;-0.33;100.00;97467.03;4970596;28;20450;-75
2021/12/11 07:52:38;;;;;;;16.77;12.80;;;;;;;-0.37;100.00;97473.41;4961181;28;20209;-73
2021/12/11 07:55:09;;;;;;;23.00;15.53;;;;;;;-0.26;100.00;97475.25;4973480;28;20237;-75
2021/12/11 07:57:39;;;;;;;19.27;13.27;;;;;;;-0.37;100.00;97480.41;4956064;28;20218;-73
2021/12/11 08:00:09;;;;;;;14.30;11.20;;;;;;;-0.34;100.00;97488.00;4966162;28;20238;-75
2021/12/11 08:02:37;;;;;;;18.53;12.70;;;;;;;-0.42;100.00;97496.34;4934223;28;20217;-73
2021/12/11 08:05:07;;;;;;;20.43;13.10;;;;;;;-0.35;100.00;97500.16;4956483;28;20222;-75
2021/12/11 08:07:35;;;;;;;18.40;13.03;;;;;;;-0.31;100.00;97509.44;4971708;28;20665;-75
2021/12/11 08:10:04;;;;;;;18.67;13.63;;;;;;;-0.31;100.00;97519.84;4939604;28;20236;-76
2021/12/11 08:12:32;;;;;;;29.83;18.13;;;;;;;-0.35;100.00;97523.59;4952036;28;20482;-75
2021/12/11 08:15:02;;;;;;;23.93;17.53;;;;;;;-0.25;100.00;97522.94;4959720;28;20237;-75
2021/12/11 08:17:30;;;;;;;21.57;15.73;;;;;;;-0.34;100.00;97533.06;4931495;28;20459;-75
2021/12/11 08:19:58;;;;;;;17.47;12.77;;;;;;;-0.36;100.00;97540.16;4964948;28;20199;-75
2021/12/11 08:22:26;;;;;;;18.67;13.43;;;;;;;-0.20;100.00;97536.47;4968363;28;20762;-75
2021/12/11 08:24:54;;;;;;;78.87;34.80;;;;;;;-0.25;100.00;97555.06;4975195;28;20741;-75
2021/12/11 08:27:23;;;;;;;41.60;22.00;;;;;;;-0.27;100.00;97553.47;4966698;28;20444;-72
2021/12/11 08:29:53;;;;;;;39.77;22.63;;;;;;;-0.25;100.00;97559.41;4971861;28;20489;-75
2021/12/11 08:32:24;;;;;;;27.67;18.00;;;;;;;-0.20;100.00;97560.75;4915193;28;21032;-72
2021/12/11 08:34:55;;;;;;;35.57;23.63;;;;;;;-0.18;100.00;97568.50;4967338;28;20996;-76
2021/12/11 08:37:24;;;;;;;22.03;15.53;;;;;;;-0.21;100.00;97573.88;4958792;28;20210;-73
2021/12/11 08:39:53;;;;;;;16.43;13.50;;;;;;;-0.20;100.00;97578.16;4970332;28;20453;-75
2021/12/11 08:42:24;;;;;;;19.10;15.20;;;;;;;-0.15;100.00;97587.31;4971864;28;20209;-73
2021/12/11 08:44:59;;;;;;;21.63;15.97;;;;;;;-0.10;100.00;97588.78;4954365;28;20229;-75
2021/12/11 08:47:28;;;;;;;27.30;20.30;;;;;;;-0.11;100.00;97600.97;4922104;28;20810;-75
2021/12/11 08:49:56;;;;;;;24.47;16.37;;;;;;;-0.14;100.00;97595.97;4950207;28;20313;-75
2021/12/11 08:52:26;;;;;;;24.80;15.20;;;;;;;-0.17;100.00;97604.00;4962665;28;20495;-73
2021/12/11 08:54:55;;;;;;;28.27;18.43;;;;;;;-0.15;100.00;97608.16;4970305;28;20233;-75
2021/12/11 08:57:25;;;;;;;24.33;18.30;;;;;;;-0.07;100.00;97610.25;4956238;28;20453;-73
2021/12/11 08:59:55;;;;;;;25.10;17.10;;;;;;;-0.08;100.00;97624.22;4968183;28;20654;-75
2021/12/11 09:02:26;;;;;;;38.97;28.43;;;;;;;-0.12;100.00;97617.53;4953558;28;20503;-73
2021/12/11 09:05:00;;;;;;;22.00;15.83;;;;;;;-0.10;100.00;97638.25;4939337;28;20225;-75
2021/12/11 09:07:31;;;;;;;23.90;16.57;;;;;;;-0.04;100.00;97636.09;4948224;28;20327;-76
2021/12/11 09:10:04;;;;;;;24.83;17.70;;;;;;;0.09;100.00;97645.66;4974020;28;20636;-75
2021/12/11 09:12:39;;;;;;;26.10;20.00;;;;;;;0.07;100.00;97653.59;4970419;28;20292;-75
2021/12/11 09:15:11;;;;;;;25.83;16.80;;;;;;;-0.01;100.00;97661.06;4953528;28;20353;-73
2021/12/11 09:17:43;;;;;;;20.00;15.87;;;;;;;0.02;100.00;97660.88;4961406;28;20449;-74
2021/12/11 09:20:17;;;;;;;23.83;16.60;;;;;;;0.09;100.00;97667.34;4936851;28;20213;-72
2021/12/11 09:22:48;;;;;;;22.33;15.93;;;;;;;0.06;100.00;97672.75;4966493;28;20278;-74
2021/12/11 09:25:21;;;;;;;26.67;20.83;;;;;;;0.08;100.00;97683.06;4958635;28;20233;-72
2021/12/11 09:27:52;;;;;;;26.43;18.30;;;;;;;0.05;100.00;97693.69;4972810;28;20221;-75
2021/12/11 09:30:23;;;;;;;25.03;18.80;;;;;;;0.06;100.00;97690.16;4967610;28;20765;-72
2021/12/11 09:32:53;;;;;;;22.73;18.43;;;;;;;0.05;100.00;97698.91;4943068;28;20674;-75
2021/12/11 09:35:27;;;;;;;21.80;15.97;;;;;;;0.03;100.00;97698.19;4940343;28;20213;-72
2021/12/11 09:38:00;;;;;;;19.70;15.90;;;;;;;0.06;100.00;97709.25;4951963;28;20248;-75
2021/12/11 09:40:50;;;;;;;21.13;14.60;;;;;;;0.06;100.00;97711.84;4968167;28;20220;-74
2021/12/11 09:43:31;;;;;;;23.97;17.27;;;;;;;0.13;100.00;97709.63;4957114;28;20229;-72
2021/12/11 09:46:02;;;;;;;20.70;15.13;;;;;;;0.08;100.00;97709.97;4958222;28;20214;-73
2021/12/11 09:48:30;;;;;;;19.13;16.13;;;;;;;0.10;100.00;97709.84;4953885;28;20288;-75
2021/12/11 09:51:04;;;;;;;20.10;14.93;;;;;;;0.16;100.00;97716.41;4937304;28;20228;-73
2021/12/11 09:53:35;;;;;;;25.37;15.83;;;;;;;0.18;100.00;97712.75;4958822;28;20228;-75
2021/12/11 09:56:06;;;;;;;21.50;15.60;;;;;;;0.31;100.00;97714.53;4964692;28;20202;-73
2021/12/11 09:58:38;;;;;;;20.83;15.03;;;;;;;0.31;100.00;97715.34;4967400;28;20356;-75
2021/12/11 10:01:10;;;;;;;18.63;15.13;;;;;;;0.40;100.00;97719.94;4964357;28;20228;-72
2021/12/11 10:03:45;;;;;;;20.43;14.77;;;;;;;0.41;100.00;97725.97;4968746;28;20229;-76
2021/12/11 10:06:37;;;;;;;21.83;14.87;;;;;;;0.28;100.00;97726.84;4941977;28;20304;-76
2021/12/11 10:09:17;;;;;;;19.03;15.67;;;;;;;0.31;100.00;97732.78;4930790;28;20229;-73
2021/12/11 10:11:52;;;;;;;19.13;14.30;;;;;;;0.37;100.00;97742.78;4966481;28;20229;-77
2021/12/11 10:14:24;;;;;;;18.07;14.00;;;;;;;0.48;100.00;97739.44;4956126;28;20429;-76
2021/12/11 10:16:55;;;;;;;27.90;20.60;;;;;;;0.47;100.00;97743.81;4964864;28;20202;-72
2021/12/11 10:19:29;;;;;;;22.77;16.27;;;;;;;0.32;100.00;97755.31;4943633;28;20240;-75
2021/12/11 10:22:04;;;;;;;25.90;19.33;;;;;;;0.39;100.00;97753.94;4970600;28;20203;-73
2021/12/11 10:24:34;;;;;;;39.80;25.73;;;;;;;0.46;100.00;97759.56;4922071;28;20240;-79
2021/12/11 10:27:07;;;;;;;62.53;35.10;;;;;;;0.56;100.00;97761.41;4965701;28;20260;-75
2021/12/11 10:29:37;;;;;;;56.50;30.67;;;;;;;0.48;100.00;97768.94;4965994;28;20669;-77
2021/12/11 10:32:10;;;;;;;95.63;46.67;;;;;;;0.56;100.00;97776.25;4949984;28;20230;-73
2021/12/11 10:34:40;;;;;;;45.60;25.53;;;;;;;0.39;100.00;97786.06;4961913;28;20579;-76
2021/12/11 10:37:12;;;;;;;32.00;21.37;;;;;;;0.41;100.00;97786.78;4951916;28;20468;-76
2021/12/11 10:39:43;;;;;;;100.07;46.07;;;;;;;0.52;100.00;97778.22;4936036;28;20468;-77
2021/12/11 10:42:12;;;;;;;39.73;27.03;;;;;;;0.57;100.00;97788.34;4952877;28;20358;-76
2021/12/11 10:44:44;;;;;;;32.83;22.17;;;;;;;0.51;100.00;97794.81;4971372;28;20291;-77
2021/12/11 10:47:16;;;;;;;20.07;16.30;;;;;;;0.55;100.00;97796.25;4968178;28;20737;-76
2021/12/11 10:50:06;;;;;;;24.83;19.27;;;;;;;0.51;100.00;97799.19;4947803;28;20222;-73
2021/12/11 10:52:36;;;;;;;19.23;15.70;;;;;;;0.51;100.00;97801.81;4973342;28;20702;-76
2021/12/11 10:55:11;;;;;;;20.83;15.70;;;;;;;0.64;100.00;97801.81;4932851;28;20206;-74
2021/12/11 10:57:40;;;;;;;21.03;17.40;;;;;;;0.72;100.00;97805.53;4976920;28;20212;-75
2021/12/11 11:00:14;;;;;;;25.10;16.93;;;;;;;0.67;100.00;97805.00;4958125;28;20223;-74
2021/12/11 11:02:43;;;;;;;21.80;15.00;;;;;;;0.85;100.00;97813.34;4972622;28;20208;-77
2021/12/11 11:05:14;;;;;;;19.87;15.57;;;;;;;0.76;100.00;97815.75;4972052;28;20565;-77
2021/12/11 11:07:44;;;;;;;18.83;14.70;;;;;;;0.74;100.00;97815.00;4960988;28;20709;-76
2021/12/11 11:10:15;;;;;;;17.93;14.80;;;;;;;0.76;100.00;97816.59;4974323;28;20429;-76
2021/12/11 11:12:49;;;;;;;20.13;15.23;;;;;;;0.88;100.00;97816.66;4929343;28;20301;-73
2021/12/11 11:15:21;;;;;;;16.87;14.13;;;;;;;1.07;100.00;97813.59;4976737;28;20415;-77
2021/12/11 11:17:51;;;;;;;19.93;14.70;;;;;;;1.07;100.00;97813.59;4972021;28;20286;-74
2021/12/11 11:20:24;;;;;;;19.97;14.20;;;;;;;1.01;100.00;97831.38;4957811;28;20597;-76
2021/12/11 11:22:52;;;;;;;18.73;13.80;;;;;;;0.82;100.00;97837.03;4975590;28;20579;-73
2021/12/11 11:25:25;;;;;;;20.33;15.17;;;;;;;1.07;100.00;97840.56;4964050;28;20632;-75
2021/12/11 11:27:57;;;;;;;22.77;14.20;;;;;;;1.05;100.00;97842.44;4935665;28;20740;-74
2021/12/11 11:30:32;;;;;;;21.27;13.70;;;;;;;1.11;100.00;97852.44;4957257;28;20495;-77
2021/12/11 11:33:02;;;;;;;18.73;15.20;;;;;;;1.13;100.00;97857.53;4971280;28;20319;-74
2021/12/11 11:35:32;;;;;;;19.27;15.20;;;;;;;1.02;100.00;97866.13;4973585;28;20554;-74
2021/12/11 11:38:04;;;;;;;21.13;15.13;;;;;;;1.12;100.00;97868.91;4965232;28;20213;-74
2021/12/11 11:40:35;;;;;;;17.87;14.13;;;;;;;1.12;100.00;97875.00;4973509;28;20216;-76